createdAt,value
2023-04-28T00:01:35.226Z,97748.53
2023-04-28T00:04:27.378Z,97741.84
2023-04-28T00:07:17.765Z,97739.13
2023-04-28T00:10:08.270Z,97734.47
2023-04-28T00:12:57.169Z,97729.19
2023-04-28T00:15:46.174Z,97727.13
2023-04-28T00:18:35.350Z,97729.38
2023-04-28T00:21:24.268Z,97732.88
2023-04-28T00:24:14.686Z,97727.28
2023-04-28T00:27:04.193Z,97724.09
2023-04-28T00:29:53.215Z,97723.13
2023-04-28T00:32:42.201Z,97719.09
2023-04-28T00:35:31.247Z,97721.38
2023-04-28T00:38:20.292Z,97719.63
2023-04-28T00:41:12.845Z,97725.34
2023-04-28T00:44:01.747Z,97722.47
2023-04-28T00:46:51.563Z,97721.22
2023-04-28T00:49:40.934Z,97718.00
2023-04-28T00:52:30.681Z,97720.88
2023-04-28T00:55:20.862Z,97727.94
2023-04-28T00:58:12.197Z,97735.28
2023-04-28T01:01:05.560Z,97725.69
2023-04-28T01:03:55.150Z,97726.97
2023-04-28T01:06:46.451Z,97703.00
2023-04-28T01:09:35.992Z,97695.97
2023-04-28T01:12:25.227Z,97705.69
2023-04-28T01:15:21.082Z,97701.25
2023-04-28T01:18:15.915Z,97694.50
2023-04-28T01:21:05.158Z,97696.75
2023-04-28T01:23:55.308Z,97696.91
2023-04-28T01:26:44.646Z,97700.88
2023-04-28T01:29:33.608Z,97695.16
2023-04-28T01:32:22.556Z,97701.06
2023-04-28T01:35:11.626Z,97707.97
2023-04-28T01:38:00.780Z,97702.50
2023-04-28T01:40:51.189Z,97701.72
2023-04-28T01:43:40.572Z,97693.38
2023-04-28T01:46:29.477Z,97686.19
2023-04-28T01:49:20.193Z,97687.81
2023-04-28T01:52:09.791Z,97686.19
2023-04-28T01:54:59.044Z,97685.88
2023-04-28T01:57:50.041Z,97689.41
2023-04-28T02:00:39.493Z,97686.38
2023-04-28T02:03:30.522Z,97684.78
2023-04-28T02:06:19.451Z,97682.84
2023-04-28T02:09:08.357Z,97676.44
2023-04-28T02:11:57.202Z,97682.72
2023-04-28T02:14:47.403Z,97683.16
2023-04-28T02:17:36.404Z,97671.00
2023-04-28T02:20:25.543Z,97665.91
2023-04-28T02:23:14.746Z,97659.50
2023-04-28T02:26:04.183Z,97660.16
2023-04-28T02:28:53.656Z,97666.69
2023-04-28T02:31:43.897Z,97663.97
2023-04-28T02:34:33.803Z,97659.03
2023-04-28T02:37:23.571Z,97654.41
2023-04-28T02:40:14.451Z,97663.69
2023-04-28T02:43:03.273Z,97661.44
2023-04-28T02:45:52.126Z,97660.47
2023-04-28T02:48:43.087Z,97659.22
2023-04-28T02:51:34.531Z,97657.31
2023-04-28T02:54:28.124Z,97662.41
2023-04-28T02:57:18.093Z,97669.59
2023-04-28T03:00:09.667Z,97663.69
2023-04-28T03:03:06.391Z,97648.03
2023-04-28T03:05:57.720Z,97655.38
2023-04-28T03:08:47.247Z,97659.38
2023-04-28T03:11:36.410Z,97641.47
2023-04-28T03:14:26.937Z,97649.78
2023-04-28T03:17:17.188Z,97649.16
2023-04-28T03:20:08.066Z,97645.16
2023-04-28T03:22:59.173Z,97649.44
2023-04-28T03:25:48.077Z,97640.66
2023-04-28T03:28:37.427Z,97635.25
2023-04-28T03:31:27.525Z,97624.84
2023-04-28T03:34:17.251Z,97634.13
2023-04-28T03:37:07.436Z,97642.09
2023-04-28T03:39:58.460Z,97636.84
2023-04-28T03:42:47.924Z,97619.88
2023-04-28T03:45:45.496Z,97616.88
2023-04-28T03:48:34.485Z,97607.13
2023-04-28T03:51:23.542Z,97614.63
2023-04-28T03:54:13.304Z,97616.53
2023-04-28T03:57:05.441Z,97612.34
2023-04-28T03:59:56.454Z,97605.66
2023-04-28T04:02:45.999Z,97601.69
2023-04-28T04:05:35.474Z,97612.50
2023-04-28T04:08:24.703Z,97603.59
2023-04-28T04:11:13.523Z,97596.69
2023-04-28T04:14:03.777Z,97606.31
2023-04-28T04:16:52.584Z,97605.00
2023-04-28T04:19:41.621Z,97593.47
2023-04-28T04:22:32.699Z,97597.59
2023-04-28T04:25:23.344Z,97602.88
2023-04-28T04:28:12.739Z,97594.53
2023-04-28T04:31:03.537Z,97578.66
2023-04-28T04:33:52.836Z,97588.25
2023-04-28T04:36:44.184Z,97587.13
2023-04-28T04:39:34.130Z,97592.97
2023-04-28T04:42:25.850Z,97575.94
2023-04-28T04:45:38.305Z,97579.78
2023-04-28T04:48:29.707Z,97582.28
2023-04-28T04:51:20.396Z,97582.59
2023-04-28T04:54:10.609Z,97575.41
2023-04-28T04:57:02.686Z,97578.63
2023-04-28T05:00:13.648Z,97589.16
2023-04-28T05:03:06.392Z,97590.25
2023-04-28T05:05:59.075Z,97584.63
2023-04-28T05:09:02.831Z,97574.31
2023-04-28T05:11:52.141Z,97561.38
2023-04-28T05:14:41.981Z,97561.69
2023-04-28T05:17:32.276Z,97552.06
2023-04-28T05:20:21.344Z,97562.72
2023-04-28T05:23:12.384Z,97574.03
2023-04-28T05:26:03.243Z,97576.56
2023-04-28T05:28:52.703Z,97579.81
2023-04-28T05:31:41.787Z,97572.13
2023-04-28T05:34:33.276Z,97563.44
2023-04-28T05:37:23.022Z,97565.97
2023-04-28T05:40:14.828Z,97558.28
2023-04-28T05:43:03.784Z,97564.13
2023-04-28T05:45:54.026Z,97560.75
2023-04-28T05:48:45.012Z,97571.06
2023-04-28T05:51:34.813Z,97582.22
2023-04-28T05:54:24.774Z,97578.53
2023-04-28T05:57:18.858Z,97591.63
2023-04-28T06:00:09.627Z,97595.38
2023-04-28T06:03:01.896Z,97591.56
2023-04-28T06:05:51.568Z,97585.47
2023-04-28T06:08:42.281Z,97586.91
2023-04-28T06:11:31.622Z,97580.19
2023-04-28T06:14:23.819Z,97584.19
2023-04-28T06:17:12.792Z,97583.91
2023-04-28T06:20:01.830Z,97577.38
2023-04-28T06:22:51.427Z,97582.28
2023-04-28T06:25:41.420Z,97577.56
2023-04-28T06:28:30.459Z,97580.53
2023-04-28T06:31:20.999Z,97565.88
2023-04-28T06:34:10.447Z,97561.91
2023-04-28T06:37:00.329Z,97560.25
2023-04-28T06:39:49.407Z,97552.63
2023-04-28T06:42:38.544Z,97551.78
2023-04-28T06:45:33.145Z,97543.72
2023-04-28T06:48:23.417Z,97540.34
2023-04-28T06:51:12.412Z,97551.16
2023-04-28T06:54:02.314Z,97542.53
2023-04-28T06:56:51.389Z,97558.81
2023-04-28T06:59:40.636Z,97559.44
2023-04-28T07:02:29.731Z,97573.84
2023-04-28T07:05:21.334Z,97585.44
2023-04-28T07:08:12.071Z,97587.94
2023-04-28T07:11:04.370Z,97597.28
2023-04-28T07:13:55.164Z,97596.81
2023-04-28T07:16:45.249Z,97600.09
2023-04-28T07:19:34.290Z,97591.59
2023-04-28T07:22:24.664Z,97583.06
2023-04-28T07:25:14.130Z,97594.78
2023-04-28T07:28:06.445Z,97588.97
2023-04-28T07:30:56.347Z,97594.00
2023-04-28T07:33:46.369Z,97595.13
2023-04-28T07:36:36.210Z,97588.97
2023-04-28T07:39:26.619Z,97589.72
2023-04-28T07:42:16.123Z,97588.13
2023-04-28T07:45:08.379Z,97587.31
2023-04-28T07:47:57.341Z,97584.84
2023-04-28T07:50:49.022Z,97579.66
2023-04-28T07:53:38.110Z,97588.28
2023-04-28T07:56:30.157Z,97586.09
2023-04-28T07:59:19.410Z,97585.53
2023-04-28T08:02:08.543Z,97581.91
2023-04-28T08:04:57.644Z,97577.91
2023-04-28T08:07:46.754Z,97572.38
2023-04-28T08:10:35.787Z,97577.16
2023-04-28T08:13:27.314Z,97578.59
2023-04-28T08:16:16.687Z,97572.81
2023-04-28T08:19:06.432Z,97565.16
2023-04-28T08:21:55.285Z,97569.94
2023-04-28T08:24:45.249Z,97566.66
2023-04-28T08:27:37.997Z,97570.66
2023-04-28T08:30:28.448Z,97564.97
2023-04-28T08:33:17.373Z,97563.66
2023-04-28T08:36:07.420Z,97557.75
2023-04-28T08:38:58.887Z,97573.16
2023-04-28T08:41:47.882Z,97566.13
2023-04-28T08:44:39.818Z,97561.22
2023-04-28T08:47:36.124Z,97572.59
2023-04-28T08:50:27.454Z,97567.94
2023-04-28T08:53:23.775Z,97576.56
2023-04-28T08:56:17.134Z,97573.03
2023-04-28T08:59:07.451Z,97567.13
2023-04-28T09:01:57.081Z,97577.91
2023-04-28T09:04:49.028Z,97570.88
2023-04-28T09:07:38.371Z,97579.97
2023-04-28T09:10:28.375Z,97571.34
2023-04-28T09:13:27.138Z,97570.88
2023-04-28T09:16:16.435Z,97572.38
2023-04-28T09:19:05.506Z,97578.03
2023-04-28T09:21:57.597Z,97582.47
2023-04-28T09:24:47.109Z,97580.22
2023-04-28T09:27:37.472Z,97575.22
2023-04-28T09:30:41.418Z,97576.34
2023-04-28T09:33:31.668Z,97565.16
2023-04-28T09:36:30.661Z,97554.41
2023-04-28T09:39:32.381Z,97540.53
2023-04-28T09:42:34.702Z,97533.47
2023-04-28T09:45:24.615Z,97523.03
2023-04-28T09:48:13.625Z,97531.06
2023-04-28T09:51:06.454Z,97532.22
2023-04-28T09:54:01.557Z,97521.41
2023-04-28T09:56:52.792Z,97513.59
2023-04-28T09:59:41.912Z,97511.34
2023-04-28T10:02:43.220Z,97518.19
2023-04-28T10:05:36.017Z,97511.69
2023-04-28T10:08:28.555Z,97495.38
2023-04-28T10:11:20.758Z,97496.50
2023-04-28T10:14:12.654Z,97501.72
2023-04-28T10:17:03.269Z,97500.13
2023-04-28T10:19:55.377Z,97492.94
2023-04-28T10:23:00.510Z,97485.78
2023-04-28T10:25:57.252Z,97481.41
2023-04-28T10:28:50.305Z,97495.28
2023-04-28T10:31:40.592Z,97495.75
2023-04-28T10:34:30.190Z,97504.28
2023-04-28T10:37:20.484Z,97506.19
2023-04-28T10:40:34.608Z,97501.88
2023-04-28T10:43:39.730Z,97496.84
2023-04-28T10:46:28.861Z,97485.72
2023-04-28T10:49:19.396Z,97482.09
2023-04-28T10:52:52.594Z,97471.16
2023-04-28T10:55:41.724Z,97467.91
2023-04-28T10:58:41.892Z,97462.34
2023-04-28T11:01:34.606Z,97463.09
2023-04-28T11:04:25.335Z,97456.88
2023-04-28T11:07:14.841Z,97460.63
2023-04-28T11:10:04.405Z,97464.31
2023-04-28T11:13:34.291Z,97454.81
2023-04-28T11:16:27.229Z,97448.63
2023-04-28T11:19:23.556Z,97447.66
2023-04-28T11:22:19.436Z,97449.88
2023-04-28T11:25:09.285Z,97444.81
2023-04-28T11:28:07.023Z,97448.03
2023-04-28T11:31:12.518Z,97441.66
2023-04-28T11:34:06.164Z,97433.25
2023-04-28T11:36:55.240Z,97426.53
2023-04-28T11:39:45.807Z,97442.78
2023-04-28T11:42:34.837Z,97434.69
2023-04-28T11:45:23.739Z,97431.00
2023-04-28T11:48:23.168Z,97441.56
2023-04-28T11:51:12.655Z,97453.47
2023-04-28T11:54:02.612Z,97437.19
2023-04-28T11:56:54.734Z,97421.03
2023-04-28T11:59:44.429Z,97434.97
2023-04-28T12:02:33.749Z,97434.59
2023-04-28T12:05:23.602Z,97427.09
2023-04-28T12:08:13.547Z,97445.53
2023-04-28T12:11:10.895Z,97431.09
2023-04-28T12:14:10.760Z,97432.81
2023-04-28T12:17:00.755Z,97441.63
2023-04-28T12:19:49.568Z,97441.13
2023-04-28T12:22:50.662Z,97446.28
2023-04-28T12:25:46.312Z,97453.88
2023-04-28T12:28:39.698Z,97455.75
2023-04-28T12:31:30.256Z,97461.59
2023-04-28T12:34:19.312Z,97472.97
2023-04-28T12:37:08.574Z,97471.81
2023-04-28T12:39:58.414Z,97469.28
2023-04-28T12:42:47.329Z,97459.28
2023-04-28T12:45:37.686Z,97460.34
2023-04-28T12:48:29.826Z,97462.75
2023-04-28T12:51:18.898Z,97459.56
2023-04-28T12:54:08.607Z,97457.25
2023-04-28T12:56:57.607Z,97457.50
2023-04-28T12:59:48.633Z,97448.78
2023-04-28T13:02:38.372Z,97449.03
2023-04-28T13:05:28.768Z,97444.88
2023-04-28T13:08:17.628Z,97442.25
2023-04-28T13:11:16.055Z,97439.19
2023-04-28T13:14:12.093Z,97442.69
2023-04-28T13:17:03.098Z,97440.19
2023-04-28T13:19:51.860Z,97441.47
2023-04-28T13:22:42.085Z,97441.47
2023-04-28T13:25:31.611Z,97436.28
2023-04-28T13:28:21.543Z,97437.28
2023-04-28T13:31:10.656Z,97423.84
2023-04-28T13:34:02.010Z,97419.19
2023-04-28T13:36:51.051Z,97416.69
2023-04-28T13:39:41.270Z,97418.47
2023-04-28T13:42:30.030Z,97405.66
2023-04-28T13:45:20.140Z,97399.88
2023-04-28T13:48:11.009Z,97402.59
2023-04-28T13:51:00.005Z,97410.59
2023-04-28T13:53:51.936Z,97407.06
2023-04-28T13:56:43.699Z,97386.31
2023-04-28T13:59:32.964Z,97382.13
2023-04-28T14:02:22.020Z,97396.34
2023-04-28T14:05:11.556Z,97393.25
2023-04-28T14:08:01.766Z,97400.63
2023-04-28T14:10:51.448Z,97392.34
2023-04-28T14:13:41.778Z,97398.31
2023-04-28T14:16:30.778Z,97382.22
2023-04-28T14:19:20.037Z,97401.44
2023-04-28T14:22:08.973Z,97397.28
2023-04-28T14:24:57.945Z,97400.16
2023-04-28T14:27:47.765Z,97395.63
2023-04-28T14:30:38.049Z,97395.78
2023-04-28T14:33:27.082Z,97405.88
2023-04-28T14:36:16.187Z,97392.38
2023-04-28T14:39:06.246Z,97378.97
2023-04-28T14:41:55.180Z,97384.06
2023-04-28T14:44:45.265Z,97386.47
2023-04-28T14:47:38.849Z,97369.31
2023-04-28T14:50:27.823Z,97360.94
2023-04-28T14:53:16.789Z,97364.44
2023-04-28T14:56:17.734Z,97369.66
2023-04-28T14:59:08.288Z,97359.81
2023-04-28T15:01:57.412Z,97361.53
2023-04-28T15:04:48.270Z,97363.31
2023-04-28T15:07:37.365Z,97369.94
2023-04-28T15:10:30.314Z,97356.94
2023-04-28T15:13:19.390Z,97378.72
2023-04-28T15:16:09.911Z,97381.84
2023-04-28T15:18:59.531Z,97375.91
2023-04-28T15:21:49.990Z,97372.81
2023-04-28T15:24:38.887Z,97344.53
2023-04-28T15:27:28.400Z,97353.25
2023-04-28T15:30:17.648Z,97342.84
2023-04-28T15:33:07.843Z,97327.72
2023-04-28T15:35:57.584Z,97334.72
2023-04-28T15:38:49.046Z,97331.00
2023-04-28T15:41:38.828Z,97331.31
2023-04-28T15:44:30.717Z,97335.75
2023-04-28T15:47:20.485Z,97323.16
2023-04-28T15:50:11.174Z,97326.78
2023-04-28T15:53:00.143Z,97321.22
2023-04-28T15:55:50.738Z,97323.13
2023-04-28T15:58:40.432Z,97326.91
2023-04-28T16:01:29.841Z,97323.56
2023-04-28T16:04:27.592Z,97338.00
2023-04-28T16:07:19.565Z,97346.06
2023-04-28T16:10:11.358Z,97331.84
2023-04-28T16:13:01.853Z,97335.25
2023-04-28T16:15:51.874Z,97332.22
2023-04-28T16:18:40.872Z,97329.66
2023-04-28T16:21:36.858Z,97325.34
2023-04-28T16:24:29.376Z,97323.13
2023-04-28T16:27:27.933Z,97330.53
2023-04-28T16:30:20.134Z,97342.22
2023-04-28T16:33:11.801Z,97349.31
2023-04-28T16:36:00.672Z,97345.63
2023-04-28T16:38:58.924Z,97346.72
2023-04-28T16:41:48.240Z,97329.25
2023-04-28T16:44:39.842Z,97331.78
2023-04-28T16:47:34.301Z,97334.88
2023-04-28T16:50:23.290Z,97330.78
2023-04-28T16:53:12.353Z,97345.94
2023-04-28T16:56:01.610Z,97342.41
2023-04-28T16:58:50.494Z,97335.16
2023-04-28T17:01:39.473Z,97325.25
2023-04-28T17:04:35.191Z,97325.00
2023-04-28T17:07:26.882Z,97326.16
2023-04-28T17:10:17.716Z,97329.22
2023-04-28T17:13:11.166Z,97340.91
2023-04-28T17:16:04.144Z,97335.56
2023-04-28T17:18:56.358Z,97333.28
2023-04-28T17:21:46.539Z,97328.78
2023-04-28T17:24:38.032Z,97330.69
2023-04-28T17:27:32.648Z,97336.00
2023-04-28T17:30:32.088Z,97325.69
2023-04-28T17:33:23.894Z,97323.16
2023-04-28T17:36:12.759Z,97333.00
2023-04-28T17:39:04.566Z,97325.94
2023-04-28T17:41:54.080Z,97320.84
2023-04-28T17:44:44.104Z,97331.41
2023-04-28T17:47:34.930Z,97333.69
2023-04-28T17:50:23.787Z,97329.88
2023-04-28T17:53:12.631Z,97331.94
2023-04-28T17:56:03.409Z,97329.00
2023-04-28T17:58:53.562Z,97339.94
2023-04-28T18:01:43.940Z,97332.78
2023-04-28T18:04:32.806Z,97329.13
2023-04-28T18:07:21.655Z,97323.25
2023-04-28T18:10:11.109Z,97321.63
2023-04-28T18:13:02.372Z,97338.13
2023-04-28T18:15:51.729Z,97345.75
2023-04-28T18:18:40.687Z,97340.56
2023-04-28T18:21:29.647Z,97325.53
2023-04-28T18:24:20.907Z,97309.56
2023-04-28T18:27:09.721Z,97326.94
2023-04-28T18:29:59.881Z,97338.94
2023-04-28T18:32:49.564Z,97336.91
2023-04-28T18:35:38.632Z,97336.31
2023-04-28T18:38:27.830Z,97337.22
2023-04-28T18:41:19.591Z,97347.34
2023-04-28T18:44:08.557Z,97355.66
2023-04-28T18:46:59.929Z,97353.25
2023-04-28T18:49:50.382Z,97364.19
2023-04-28T18:52:39.359Z,97352.75
2023-04-28T18:55:28.312Z,97333.19
2023-04-28T18:58:17.247Z,97336.09
2023-04-28T19:01:06.063Z,97323.66
2023-04-28T19:03:56.692Z,97321.19
2023-04-28T19:06:45.719Z,97322.13
2023-04-28T19:09:34.985Z,97345.00
2023-04-28T19:12:23.971Z,97351.91
2023-04-28T19:15:13.068Z,97363.38
2023-04-28T19:18:04.255Z,97369.72
2023-04-28T19:21:03.003Z,97384.72
2023-04-28T19:23:52.109Z,97396.19
2023-04-28T19:26:41.884Z,97394.94
2023-04-28T19:29:31.098Z,97399.16
2023-04-28T19:32:23.085Z,97403.22
2023-04-28T19:35:12.249Z,97403.31
2023-04-28T19:38:02.465Z,97407.56
2023-04-28T19:40:52.135Z,97400.06
2023-04-28T19:43:41.042Z,97401.00
2023-04-28T19:46:29.985Z,97393.78
2023-04-28T19:49:19.184Z,97399.72
2023-04-28T19:52:10.005Z,97390.63
2023-04-28T19:55:01.915Z,97385.84
2023-04-28T19:57:52.482Z,97372.38
2023-04-28T20:00:41.785Z,97367.91
2023-04-28T20:03:31.356Z,97373.09
2023-04-28T20:06:20.278Z,97382.44
2023-04-28T20:09:09.660Z,97393.00
2023-04-28T20:11:59.935Z,97391.28
2023-04-28T20:14:49.167Z,97397.31
2023-04-28T20:17:38.269Z,97408.69
2023-04-28T20:20:28.028Z,97416.88
2023-04-28T20:23:17.310Z,97409.38
2023-04-28T20:26:06.186Z,97407.22
2023-04-28T20:28:57.133Z,97404.69
2023-04-28T20:31:46.074Z,97402.66
2023-04-28T20:34:36.283Z,97414.94
2023-04-28T20:37:26.425Z,97412.63
2023-04-28T20:40:15.678Z,97415.19
2023-04-28T20:43:04.614Z,97419.94
2023-04-28T20:45:57.734Z,97414.25
2023-04-28T20:48:46.664Z,97413.69
2023-04-28T20:51:40.972Z,97417.97
2023-04-28T20:54:29.868Z,97412.53
2023-04-28T20:57:18.755Z,97412.91
2023-04-28T21:00:10.636Z,97405.97
2023-04-28T21:03:04.736Z,97417.69
2023-04-28T21:05:54.062Z,97420.75
2023-04-28T21:08:46.291Z,97427.06
2023-04-28T21:11:37.576Z,97436.22
2023-04-28T21:14:26.944Z,97437.31
2023-04-28T21:17:16.013Z,97426.78
2023-04-28T21:20:07.926Z,97429.63
2023-04-28T21:22:57.079Z,97426.44
2023-04-28T21:25:46.768Z,97431.22
2023-04-28T21:28:36.908Z,97427.59
2023-04-28T21:31:26.667Z,97436.22
2023-04-28T21:34:15.712Z,97434.75
2023-04-28T21:37:06.186Z,97432.84
2023-04-28T21:39:57.461Z,97429.44
2023-04-28T21:42:46.344Z,97434.16
2023-04-28T21:45:35.224Z,97440.47
2023-04-28T21:48:24.105Z,97436.88
2023-04-28T21:51:14.299Z,97435.19
2023-04-28T21:54:05.133Z,97428.91
2023-04-28T21:56:54.243Z,97425.53
2023-04-28T21:59:43.077Z,97410.84
2023-04-28T22:02:32.204Z,97416.44
2023-04-28T22:05:21.343Z,97418.41
2023-04-28T22:08:10.486Z,97431.31
2023-04-28T22:11:01.784Z,97424.53
2023-04-28T22:13:50.908Z,97425.38
2023-04-28T22:16:39.851Z,97441.97
2023-04-28T22:19:29.001Z,97440.19
2023-04-28T22:22:18.008Z,97442.59
2023-04-28T22:25:08.750Z,97451.88
2023-04-28T22:27:59.224Z,97448.69
2023-04-28T22:30:48.089Z,97454.56
2023-04-28T22:33:38.641Z,97444.41
2023-04-28T22:36:27.716Z,97444.50
2023-04-28T22:39:16.599Z,97444.72
2023-04-28T22:42:05.525Z,97452.16
2023-04-28T22:44:55.725Z,97441.72
2023-04-28T22:47:44.710Z,97427.78
2023-04-28T22:50:33.597Z,97435.56
2023-04-28T22:53:22.714Z,97438.66
2023-04-28T22:56:11.641Z,97434.88
2023-04-28T22:59:00.532Z,97431.34
2023-04-28T23:01:50.879Z,97432.97
2023-04-28T23:04:39.922Z,97431.25
2023-04-28T23:07:28.844Z,97427.09
2023-04-28T23:10:18.921Z,97420.63
2023-04-28T23:13:14.065Z,97416.47
2023-04-28T23:16:03.078Z,97419.59
2023-04-28T23:18:53.390Z,97416.63
2023-04-28T23:21:42.189Z,97416.75
2023-04-28T23:24:31.378Z,97416.00
2023-04-28T23:27:20.214Z,97406.13
2023-04-28T23:30:11.105Z,97409.44
2023-04-28T23:32:59.979Z,97410.38
2023-04-28T23:35:50.200Z,97403.91
2023-04-28T23:38:39.034Z,97406.16
2023-04-28T23:41:28.091Z,97401.31
2023-04-28T23:44:19.857Z,97399.94
2023-04-28T23:47:08.642Z,97400.19
2023-04-28T23:49:57.570Z,97399.16
2023-04-28T23:52:47.733Z,97390.41
2023-04-28T23:55:36.599Z,97384.81
2023-04-28T23:58:25.389Z,97390.38
